sensor_id;sensor_type;location;lat;lon;timestamp;temperature;humidity
53748;DHT22;39655;53.210;5.768;2022-11-15T00:01:09;8.50;88.50
53748;DHT22;39655;53.210;5.768;2022-11-15T00:03:51;8.50;88.50
53748;DHT22;39655;53.210;5.768;2022-11-15T00:06:17;8.50;88.50
53748;DHT22;39655;53.210;5.768;2022-11-15T00:08:43;8.40;88.50
53748;DHT22;39655;53.210;5.768;2022-11-15T00:11:12;8.40;88.50
53748;DHT22;39655;53.210;5.768;2022-11-15T00:13:38;8.40;88.40
53748;DHT22;39655;53.210;5.768;2022-11-15T00:16:04;8.40;88.40
53748;DHT22;39655;53.210;5.768;2022-11-15T00:18:30;8.40;88.30
53748;DHT22;39655;53.210;5.768;2022-11-15T00:21:03;8.40;88.30
53748;DHT22;39655;53.210;5.768;2022-11-15T00:23:29;8.40;88.20
53748;DHT22;39655;53.210;5.768;2022-11-15T00:25:56;8.40;88.10
53748;DHT22;39655;53.210;5.768;2022-11-15T00:28:29;8.40;87.90
53748;DHT22;39655;53.210;5.768;2022-11-15T00:31:00;8.40;87.90
53748;DHT22;39655;53.210;5.768;2022-11-15T00:33:29;8.40;87.90
53748;DHT22;39655;53.210;5.768;2022-11-15T00:36:22;8.40;87.90
53748;DHT22;39655;53.210;5.768;2022-11-15T00:38:50;8.40;87.80
53748;DHT22;39655;53.210;5.768;2022-11-15T00:41:16;8.40;87.80
53748;DHT22;39655;53.210;5.768;2022-11-15T00:43:42;8.40;87.80
53748;DHT22;39655;53.210;5.768;2022-11-15T00:46:11;8.40;87.70
53748;DHT22;39655;53.210;5.768;2022-11-15T00:48:37;8.40;87.50
53748;DHT22;39655;53.210;5.768;2022-11-15T00:51:03;8.30;87.30
53748;DHT22;39655;53.210;5.768;2022-11-15T00:53:29;8.30;87.40
53748;DHT22;39655;53.210;5.768;2022-11-15T00:55:56;8.20;87.40
53748;DHT22;39655;53.210;5.768;2022-11-15T00:58:31;8.20;87.30
53748;DHT22;39655;53.210;5.768;2022-11-15T01:01:06;8.20;87.40
53748;DHT22;39655;53.210;5.768;2022-11-15T01:03:36;8.20;87.40
53748;DHT22;39655;53.210;5.768;2022-11-15T01:06:02;8.10;87.50
53748;DHT22;39655;53.210;5.768;2022-11-15T01:08:27;8.10;87.50
53748;DHT22;39655;53.210;5.768;2022-11-15T01:10:53;8.10;87.50
53748;DHT22;39655;53.210;5.768;2022-11-15T01:13:35;8.10;87.60
53748;DHT22;39655;53.210;5.768;2022-11-15T01:16:12;8.00;87.70
53748;DHT22;39655;53.210;5.768;2022-11-15T01:18:47;8.00;87.80
53748;DHT22;39655;53.210;5.768;2022-11-15T01:21:15;8.00;87.90
53748;DHT22;39655;53.210;5.768;2022-11-15T01:23:42;8.10;88.00
53748;DHT22;39655;53.210;5.768;2022-11-15T01:26:10;8.00;88.00
53748;DHT22;39655;53.210;5.768;2022-11-15T01:28:37;8.00;88.00
53748;DHT22;39655;53.210;5.768;2022-11-15T01:31:06;8.00;88.10
53748;DHT22;39655;53.210;5.768;2022-11-15T01:33:37;8.00;88.20
53748;DHT22;39655;53.210;5.768;2022-11-15T01:36:08;8.00;88.30
53748;DHT22;39655;53.210;5.768;2022-11-15T01:38:35;7.90;88.50
53748;DHT22;39655;53.210;5.768;2022-11-15T01:41:01;7.90;88.60
53748;DHT22;39655;53.210;5.768;2022-11-15T01:43:32;7.80;88.60
53748;DHT22;39655;53.210;5.768;2022-11-15T01:46:18;7.80;88.60
53748;DHT22;39655;53.210;5.768;2022-11-15T01:48:47;7.70;88.60
53748;DHT22;39655;53.210;5.768;2022-11-15T01:51:17;7.70;88.90
53748;DHT22;39655;53.210;5.768;2022-11-15T01:53:46;7.60;89.00
53748;DHT22;39655;53.210;5.768;2022-11-15T01:56:20;7.60;89.20
53748;DHT22;39655;53.210;5.768;2022-11-15T01:58:47;7.50;89.30
53748;DHT22;39655;53.210;5.768;2022-11-15T02:01:13;7.50;89.30
53748;DHT22;39655;53.210;5.768;2022-11-15T02:04:08;7.40;89.50
53748;DHT22;39655;53.210;5.768;2022-11-15T02:06:36;7.40;89.50
53748;DHT22;39655;53.210;5.768;2022-11-15T02:09:02;7.40;89.50
53748;DHT22;39655;53.210;5.768;2022-11-15T02:11:28;7.40;89.60
53748;DHT22;39655;53.210;5.768;2022-11-15T02:13:55;7.30;89.40
53748;DHT22;39655;53.210;5.768;2022-11-15T02:19:11;7.30;89.60
53748;DHT22;39655;53.210;5.768;2022-11-15T02:21:59;7.30;89.50
53748;DHT22;39655;53.210;5.768;2022-11-15T02:24:49;7.30;89.50
53748;DHT22;39655;53.210;5.768;2022-11-15T02:27:42;7.30;89.50
53748;DHT22;39655;53.210;5.768;2022-11-15T02:36:15;7.30;89.80
53748;DHT22;39655;53.210;5.768;2022-11-15T02:38:53;7.20;90.00
53748;DHT22;39655;53.210;5.768;2022-11-15T02:41:44;7.30;90.10
53748;DHT22;39655;53.210;5.768;2022-11-15T02:44:26;7.20;90.10
53748;DHT22;39655;53.210;5.768;2022-11-15T02:47:14;7.20;90.20
53748;DHT22;39655;53.210;5.768;2022-11-15T02:49:47;7.20;90.30
53748;DHT22;39655;53.210;5.768;2022-11-15T02:52:17;7.20;90.40
53748;DHT22;39655;53.210;5.768;2022-11-15T02:55:01;7.30;90.40
53748;DHT22;39655;53.210;5.768;2022-11-15T03:00:19;7.20;90.50
53748;DHT22;39655;53.210;5.768;2022-11-15T03:03:05;7.30;90.60
53748;DHT22;39655;53.210;5.768;2022-11-15T03:05:43;7.30;90.70
53748;DHT22;39655;53.210;5.768;2022-11-15T03:11:08;7.30;90.90
53748;DHT22;39655;53.210;5.768;2022-11-15T03:14:00;7.30;91.10
53748;DHT22;39655;53.210;5.768;2022-11-15T03:17:11;7.30;91.30
53748;DHT22;39655;53.210;5.768;2022-11-15T03:19:40;7.30;91.50
53748;DHT22;39655;53.210;5.768;2022-11-15T03:22:12;7.30;91.60
53748;DHT22;39655;53.210;5.768;2022-11-15T03:24:44;7.30;91.70
53748;DHT22;39655;53.210;5.768;2022-11-15T03:27:14;7.30;91.80
53748;DHT22;39655;53.210;5.768;2022-11-15T03:29:44;7.30;91.80
53748;DHT22;39655;53.210;5.768;2022-11-15T03:32:15;7.30;91.80
53748;DHT22;39655;53.210;5.768;2022-11-15T03:34:57;7.30;91.90
53748;DHT22;39655;53.210;5.768;2022-11-15T03:37:33;7.30;92.00
53748;DHT22;39655;53.210;5.768;2022-11-15T03:40:01;7.30;92.00
53748;DHT22;39655;53.210;5.768;2022-11-15T03:43:01;7.30;92.10
53748;DHT22;39655;53.210;5.768;2022-11-15T03:45:48;7.30;92.30
53748;DHT22;39655;53.210;5.768;2022-11-15T03:48:21;7.40;92.40
53748;DHT22;39655;53.210;5.768;2022-11-15T03:50:51;7.40;92.60
53748;DHT22;39655;53.210;5.768;2022-11-15T03:53:17;7.30;92.70
53748;DHT22;39655;53.210;5.768;2022-11-15T03:55:46;7.30;92.80
53748;DHT22;39655;53.210;5.768;2022-11-15T03:58:11;7.30;92.80
53748;DHT22;39655;53.210;5.768;2022-11-15T04:00:37;7.40;92.90
53748;DHT22;39655;53.210;5.768;2022-11-15T04:03:08;7.40;93.10
53748;DHT22;39655;53.210;5.768;2022-11-15T04:05:34;7.40;93.20
53748;DHT22;39655;53.210;5.768;2022-11-15T04:07:59;7.40;93.30
53748;DHT22;39655;53.210;5.768;2022-11-15T04:10:25;7.40;93.40
53748;DHT22;39655;53.210;5.768;2022-11-15T04:12:51;7.40;93.40
53748;DHT22;39655;53.210;5.768;2022-11-15T04:15:20;7.40;93.50
53748;DHT22;39655;53.210;5.768;2022-11-15T04:17:51;7.40;93.60
53748;DHT22;39655;53.210;5.768;2022-11-15T04:23:06;7.40;93.70
53748;DHT22;39655;53.210;5.768;2022-11-15T04:25:53;7.40;93.80
53748;DHT22;39655;53.210;5.768;2022-11-15T04:28:20;7.50;93.80
53748;DHT22;39655;53.210;5.768;2022-11-15T04:30:46;7.50;93.80
53748;DHT22;39655;53.210;5.768;2022-11-15T04:33:12;7.50;93.80
53748;DHT22;39655;53.210;5.768;2022-11-15T04:35:38;7.50;93.90
53748;DHT22;39655;53.210;5.768;2022-11-15T04:38:06;7.60;93.90
53748;DHT22;39655;53.210;5.768;2022-11-15T04:40:32;7.60;94.00
53748;DHT22;39655;53.210;5.768;2022-11-15T04:43:01;7.60;94.00
53748;DHT22;39655;53.210;5.768;2022-11-15T04:45:26;7.60;94.00
53748;DHT22;39655;53.210;5.768;2022-11-15T04:47:55;7.60;94.00
53748;DHT22;39655;53.210;5.768;2022-11-15T04:50:21;7.60;94.00
53748;DHT22;39655;53.210;5.768;2022-11-15T04:52:53;7.60;94.10
53748;DHT22;39655;53.210;5.768;2022-11-15T04:55:19;7.70;94.10
53748;DHT22;39655;53.210;5.768;2022-11-15T04:57:46;7.70;94.10
53748;DHT22;39655;53.210;5.768;2022-11-15T05:00:16;7.70;94.20
53748;DHT22;39655;53.210;5.768;2022-11-15T05:02:42;7.70;94.10
53748;DHT22;39655;53.210;5.768;2022-11-15T05:05:26;7.80;94.20
53748;DHT22;39655;53.210;5.768;2022-11-15T05:07:52;7.80;94.30
53748;DHT22;39655;53.210;5.768;2022-11-15T05:10:18;7.80;94.30
53748;DHT22;39655;53.210;5.768;2022-11-15T05:12:44;7.80;94.40
53748;DHT22;39655;53.210;5.768;2022-11-15T05:15:10;7.80;94.50
53748;DHT22;39655;53.210;5.768;2022-11-15T05:17:35;7.90;94.50
53748;DHT22;39655;53.210;5.768;2022-11-15T05:20:01;7.90;94.50
53748;DHT22;39655;53.210;5.768;2022-11-15T05:22:27;7.90;94.50
53748;DHT22;39655;53.210;5.768;2022-11-15T05:24:53;8.00;94.60
53748;DHT22;39655;53.210;5.768;2022-11-15T05:27:19;7.90;94.60
53748;DHT22;39655;53.210;5.768;2022-11-15T05:29:44;8.00;94.80
53748;DHT22;39655;53.210;5.768;2022-11-15T05:32:13;8.00;94.80
53748;DHT22;39655;53.210;5.768;2022-11-15T05:34:42;8.10;94.90
53748;DHT22;39655;53.210;5.768;2022-11-15T05:37:08;8.10;95.00
53748;DHT22;39655;53.210;5.768;2022-11-15T05:39:33;8.10;95.10
53748;DHT22;39655;53.210;5.768;2022-11-15T05:42:08;8.10;95.20
53748;DHT22;39655;53.210;5.768;2022-11-15T05:44:36;8.20;95.30
53748;DHT22;39655;53.210;5.768;2022-11-15T05:47:23;8.20;95.40
53748;DHT22;39655;53.210;5.768;2022-11-15T05:49:52;8.30;95.60
53748;DHT22;39655;53.210;5.768;2022-11-15T05:52:22;8.30;95.50
53748;DHT22;39655;53.210;5.768;2022-11-15T05:54:50;8.30;95.70
53748;DHT22;39655;53.210;5.768;2022-11-15T05:57:17;8.40;95.70
53748;DHT22;39655;53.210;5.768;2022-11-15T05:59:42;8.40;95.80
53748;DHT22;39655;53.210;5.768;2022-11-15T06:02:11;8.40;95.90
53748;DHT22;39655;53.210;5.768;2022-11-15T06:04:37;8.50;96.10
53748;DHT22;39655;53.210;5.768;2022-11-15T06:07:03;8.50;96.00
53748;DHT22;39655;53.210;5.768;2022-11-15T06:09:28;8.50;96.10
53748;DHT22;39655;53.210;5.768;2022-11-15T06:11:54;8.60;96.30
53748;DHT22;39655;53.210;5.768;2022-11-15T06:14:20;8.60;96.20
53748;DHT22;39655;53.210;5.768;2022-11-15T06:16:46;8.60;96.30
53748;DHT22;39655;53.210;5.768;2022-11-15T06:19:11;8.60;96.30
53748;DHT22;39655;53.210;5.768;2022-11-15T06:21:37;8.70;96.40
53748;DHT22;39655;53.210;5.768;2022-11-15T06:24:03;8.70;96.40
53748;DHT22;39655;53.210;5.768;2022-11-15T06:26:30;8.70;96.40
53748;DHT22;39655;53.210;5.768;2022-11-15T06:28:55;8.70;96.50
53748;DHT22;39655;53.210;5.768;2022-11-15T06:31:21;8.80;96.50
53748;DHT22;39655;53.210;5.768;2022-11-15T06:33:47;8.80;96.60
53748;DHT22;39655;53.210;5.768;2022-11-15T06:36:15;8.90;96.70
53748;DHT22;39655;53.210;5.768;2022-11-15T06:38:43;8.90;96.60
53748;DHT22;39655;53.210;5.768;2022-11-15T06:41:10;8.90;96.70
53748;DHT22;39655;53.210;5.768;2022-11-15T06:43:37;8.90;96.80
53748;DHT22;39655;53.210;5.768;2022-11-15T06:46:04;9.00;96.80
53748;DHT22;39655;53.210;5.768;2022-11-15T06:48:31;9.00;96.80
53748;DHT22;39655;53.210;5.768;2022-11-15T06:50:58;9.10;97.10
53748;DHT22;39655;53.210;5.768;2022-11-15T06:53:25;9.10;97.00
53748;DHT22;39655;53.210;5.768;2022-11-15T06:55:51;9.10;97.00
53748;DHT22;39655;53.210;5.768;2022-11-15T06:58:23;9.10;97.00
53748;DHT22;39655;53.210;5.768;2022-11-15T07:00:49;9.10;97.00
53748;DHT22;39655;53.210;5.768;2022-11-15T07:03:15;9.10;97.00
53748;DHT22;39655;53.210;5.768;2022-11-15T07:05:40;9.20;97.00
53748;DHT22;39655;53.210;5.768;2022-11-15T07:08:06;9.10;97.00
53748;DHT22;39655;53.210;5.768;2022-11-15T07:10:32;9.20;97.10
53748;DHT22;39655;53.210;5.768;2022-11-15T07:12:58;9.20;97.20
53748;DHT22;39655;53.210;5.768;2022-11-15T07:15:27;9.20;97.10
53748;DHT22;39655;53.210;5.768;2022-11-15T07:17:53;9.20;97.10
53748;DHT22;39655;53.210;5.768;2022-11-15T07:20:19;9.30;97.20
53748;DHT22;39655;53.210;5.768;2022-11-15T07:22:44;9.30;97.20
53748;DHT22;39655;53.210;5.768;2022-11-15T07:25:11;9.30;97.20
53748;DHT22;39655;53.210;5.768;2022-11-15T07:27:37;9.40;97.20
53748;DHT22;39655;53.210;5.768;2022-11-15T07:30:03;9.40;97.30
53748;DHT22;39655;53.210;5.768;2022-11-15T07:32:30;9.40;97.40
53748;DHT22;39655;53.210;5.768;2022-11-15T07:34:56;9.50;97.30
53748;DHT22;39655;53.210;5.768;2022-11-15T07:37:21;9.50;97.30
53748;DHT22;39655;53.210;5.768;2022-11-15T07:39:50;9.50;97.40
53748;DHT22;39655;53.210;5.768;2022-11-15T07:42:16;9.60;97.40
53748;DHT22;39655;53.210;5.768;2022-11-15T07:45:00;9.60;97.40
53748;DHT22;39655;53.210;5.768;2022-11-15T07:47:28;9.60;97.40
53748;DHT22;39655;53.210;5.768;2022-11-15T07:49:54;9.60;97.40
53748;DHT22;39655;53.210;5.768;2022-11-15T07:52:19;9.70;97.40
53748;DHT22;39655;53.210;5.768;2022-11-15T07:54:45;9.70;97.40
53748;DHT22;39655;53.210;5.768;2022-11-15T07:57:11;9.70;97.50
53748;DHT22;39655;53.210;5.768;2022-11-15T07:59:36;9.80;97.50
53748;DHT22;39655;53.210;5.768;2022-11-15T08:02:02;9.80;97.40
53748;DHT22;39655;53.210;5.768;2022-11-15T08:04:28;9.80;97.40
53748;DHT22;39655;53.210;5.768;2022-11-15T08:06:53;9.90;97.50
53748;DHT22;39655;53.210;5.768;2022-11-15T08:09:19;9.90;97.50
53748;DHT22;39655;53.210;5.768;2022-11-15T08:11:45;9.90;97.50
53748;DHT22;39655;53.210;5.768;2022-11-15T08:14:10;9.90;97.50
53748;DHT22;39655;53.210;5.768;2022-11-15T08:16:36;9.90;97.50
53748;DHT22;39655;53.210;5.768;2022-11-15T08:19:02;10.00;97.50
53748;DHT22;39655;53.210;5.768;2022-11-15T08:21:27;10.00;97.50
53748;DHT22;39655;53.210;5.768;2022-11-15T08:23:53;10.00;97.50
53748;DHT22;39655;53.210;5.768;2022-11-15T08:26:18;10.10;97.50
53748;DHT22;39655;53.210;5.768;2022-11-15T08:28:44;10.10;97.50
53748;DHT22;39655;53.210;5.768;2022-11-15T08:31:14;10.10;97.50
53748;DHT22;39655;53.210;5.768;2022-11-15T08:33:42;10.10;97.50
53748;DHT22;39655;53.210;5.768;2022-11-15T08:36:15;10.10;97.50
53748;DHT22;39655;53.210;5.768;2022-11-15T08:38:41;10.10;97.50
53748;DHT22;39655;53.210;5.768;2022-11-15T08:41:15;10.20;97.50
53748;DHT22;39655;53.210;5.768;2022-11-15T08:43:44;10.20;97.50
53748;DHT22;39655;53.210;5.768;2022-11-15T08:46:12;10.30;97.50
53748;DHT22;39655;53.210;5.768;2022-11-15T08:48:38;10.30;97.50
53748;DHT22;39655;53.210;5.768;2022-11-15T08:51:03;10.40;97.50
53748;DHT22;39655;53.210;5.768;2022-11-15T08:53:29;10.40;97.50
53748;DHT22;39655;53.210;5.768;2022-11-15T08:55:55;10.40;97.50
53748;DHT22;39655;53.210;5.768;2022-11-15T08:58:21;10.50;97.50
53748;DHT22;39655;53.210;5.768;2022-11-15T09:00:47;10.50;97.40
53748;DHT22;39655;53.210;5.768;2022-11-15T09:03:12;10.50;97.40
53748;DHT22;39655;53.210;5.768;2022-11-15T09:05:38;10.60;97.40
53748;DHT22;39655;53.210;5.768;2022-11-15T09:08:04;10.60;97.40
53748;DHT22;39655;53.210;5.768;2022-11-15T09:10:30;10.60;97.40
53748;DHT22;39655;53.210;5.768;2022-11-15T09:12:58;10.60;97.30
53748;DHT22;39655;53.210;5.768;2022-11-15T09:15:24;10.70;97.30
53748;DHT22;39655;53.210;5.768;2022-11-15T09:17:50;10.70;97.30
53748;DHT22;39655;53.210;5.768;2022-11-15T09:20:16;10.70;97.20
53748;DHT22;39655;53.210;5.768;2022-11-15T09:22:41;10.70;97.10
53748;DHT22;39655;53.210;5.768;2022-11-15T09:25:07;10.70;97.10
53748;DHT22;39655;53.210;5.768;2022-11-15T09:27:33;10.80;97.00
53748;DHT22;39655;53.210;5.768;2022-11-15T09:29:59;10.80;97.00
53748;DHT22;39655;53.210;5.768;2022-11-15T09:32:28;10.80;97.00
53748;DHT22;39655;53.210;5.768;2022-11-15T09:34:55;10.80;97.00
53748;DHT22;39655;53.210;5.768;2022-11-15T09:37:21;10.90;96.90
53748;DHT22;39655;53.210;5.768;2022-11-15T09:39:49;11.00;96.80
53748;DHT22;39655;53.210;5.768;2022-11-15T09:48:13;11.00;96.30
53748;DHT22;39655;53.210;5.768;2022-11-15T09:50:48;10.90;96.30
53748;DHT22;39655;53.210;5.768;2022-11-15T09:53:25;10.90;96.20
53748;DHT22;39655;53.210;5.768;2022-11-15T09:55:58;10.90;96.00
53748;DHT22;39655;53.210;5.768;2022-11-15T10:00:54;10.80;96.00
53748;DHT22;39655;53.210;5.768;2022-11-15T10:03:27;10.80;96.00
53748;DHT22;39655;53.210;5.768;2022-11-15T10:05:57;10.80;96.00
53748;DHT22;39655;53.210;5.768;2022-11-15T10:11:09;10.80;95.90
53748;DHT22;39655;53.210;5.768;2022-11-15T10:13:40;10.80;95.90
53748;DHT22;39655;53.210;5.768;2022-11-15T10:19:16;11.00;96.00
53748;DHT22;39655;53.210;5.768;2022-11-15T10:24:26;11.10;96.00
53748;DHT22;39655;53.210;5.768;2022-11-15T10:26:56;11.20;96.00
53748;DHT22;39655;53.210;5.768;2022-11-15T10:29:25;11.30;95.90
53748;DHT22;39655;53.210;5.768;2022-11-15T10:31:54;11.30;95.90
53748;DHT22;39655;53.210;5.768;2022-11-15T10:34:22;11.40;95.70
53748;DHT22;39655;53.210;5.768;2022-11-15T10:36:56;11.40;95.70
53748;DHT22;39655;53.210;5.768;2022-11-15T10:39:22;11.50;95.30
53748;DHT22;39655;53.210;5.768;2022-11-15T10:41:49;11.50;95.30
53748;DHT22;39655;53.210;5.768;2022-11-15T10:44:21;11.60;95.10
53748;DHT22;39655;53.210;5.768;2022-11-15T10:49:24;11.60;94.90
53748;DHT22;39655;53.210;5.768;2022-11-15T10:54:41;11.60;94.50
53748;DHT22;39655;53.210;5.768;2022-11-15T10:57:14;11.70;94.40
53748;DHT22;39655;53.210;5.768;2022-11-15T10:59:49;11.80;94.40
53748;DHT22;39655;53.210;5.768;2022-11-15T11:02:29;11.80;94.40
53748;DHT22;39655;53.210;5.768;2022-11-15T11:04:55;11.90;94.30
53748;DHT22;39655;53.210;5.768;2022-11-15T11:07:27;11.90;94.30
53748;DHT22;39655;53.210;5.768;2022-11-15T11:10:17;12.00;94.10
53748;DHT22;39655;53.210;5.768;2022-11-15T11:12:46;12.00;93.80
53748;DHT22;39655;53.210;5.768;2022-11-15T11:15:14;12.00;93.50
53748;DHT22;39655;53.210;5.768;2022-11-15T11:18:15;12.10;93.40
53748;DHT22;39655;53.210;5.768;2022-11-15T11:20:51;12.10;93.50
53748;DHT22;39655;53.210;5.768;2022-11-15T11:26:34;12.20;93.10
53748;DHT22;39655;53.210;5.768;2022-11-15T11:34:38;12.10;92.40
53748;DHT22;39655;53.210;5.768;2022-11-15T11:37:31;12.10;91.80
53748;DHT22;39655;53.210;5.768;2022-11-15T11:43:02;12.10;91.50
53748;DHT22;39655;53.210;5.768;2022-11-15T11:51:16;12.10;90.70
53748;DHT22;39655;53.210;5.768;2022-11-15T11:56:28;12.20;90.70
53748;DHT22;39655;53.210;5.768;2022-11-15T11:59:16;12.20;90.70
53748;DHT22;39655;53.210;5.768;2022-11-15T12:01:47;12.30;90.50
53748;DHT22;39655;53.210;5.768;2022-11-15T12:04:43;12.40;90.60
53748;DHT22;39655;53.210;5.768;2022-11-15T12:07:25;12.40;90.50
53748;DHT22;39655;53.210;5.768;2022-11-15T12:15:58;12.70;89.80
53748;DHT22;39655;53.210;5.768;2022-11-15T12:18:31;12.70;89.70
53748;DHT22;39655;53.210;5.768;2022-11-15T12:21:51;12.70;89.10
53748;DHT22;39655;53.210;5.768;2022-11-15T12:27:08;12.70;89.30
53748;DHT22;39655;53.210;5.768;2022-11-15T12:29:44;12.70;89.20
53748;DHT22;39655;53.210;5.768;2022-11-15T12:32:34;12.80;89.00
53748;DHT22;39655;53.210;5.768;2022-11-15T12:35:03;12.90;88.30
53748;DHT22;39655;53.210;5.768;2022-11-15T12:40:22;13.00;87.90
53748;DHT22;39655;53.210;5.768;2022-11-15T12:45:44;12.90;87.00
53748;DHT22;39655;53.210;5.768;2022-11-15T12:58:50;13.20;82.00
53748;DHT22;39655;53.210;5.768;2022-11-15T13:06:46;13.10;80.60
53748;DHT22;39655;53.210;5.768;2022-11-15T13:17:30;13.10;80.10
53748;DHT22;39655;53.210;5.768;2022-11-15T13:22:38;13.10;80.50
53748;DHT22;39655;53.210;5.768;2022-11-15T13:25:38;13.10;80.60
53748;DHT22;39655;53.210;5.768;2022-11-15T13:30:53;13.10;81.60
53748;DHT22;39655;53.210;5.768;2022-11-15T13:33:37;13.10;81.90
53748;DHT22;39655;53.210;5.768;2022-11-15T13:36:24;13.10;80.80
53748;DHT22;39655;53.210;5.768;2022-11-15T13:39:03;13.10;80.70
53748;DHT22;39655;53.210;5.768;2022-11-15T13:41:33;13.00;80.60
53748;DHT22;39655;53.210;5.768;2022-11-15T13:44:30;13.00;81.00
53748;DHT22;39655;53.210;5.768;2022-11-15T13:47:12;13.00;81.70
53748;DHT22;39655;53.210;5.768;2022-11-15T13:49:42;13.10;82.30
53748;DHT22;39655;53.210;5.768;2022-11-15T13:52:11;13.10;81.70
53748;DHT22;39655;53.210;5.768;2022-11-15T13:57:21;13.10;81.90
53748;DHT22;39655;53.210;5.768;2022-11-15T13:59:51;13.10;82.20
53748;DHT22;39655;53.210;5.768;2022-11-15T14:02:36;13.10;81.70
53748;DHT22;39655;53.210;5.768;2022-11-15T14:05:14;13.00;82.40
53748;DHT22;39655;53.210;5.768;2022-11-15T14:07:57;12.90;82.60
53748;DHT22;39655;53.210;5.768;2022-11-15T14:10:31;12.90;83.00
53748;DHT22;39655;53.210;5.768;2022-11-15T14:13:00;12.80;83.30
53748;DHT22;39655;53.210;5.768;2022-11-15T14:15:37;12.80;83.10
53748;DHT22;39655;53.210;5.768;2022-11-15T14:18:04;12.80;83.60
53748;DHT22;39655;53.210;5.768;2022-11-15T14:20:32;12.70;83.40
53748;DHT22;39655;53.210;5.768;2022-11-15T14:23:01;12.70;83.40
53748;DHT22;39655;53.210;5.768;2022-11-15T14:25:33;12.70;83.80
53748;DHT22;39655;53.210;5.768;2022-11-15T14:28:13;12.60;84.00
53748;DHT22;39655;53.210;5.768;2022-11-15T14:30:41;12.60;84.00
53748;DHT22;39655;53.210;5.768;2022-11-15T14:35:48;12.50;83.90
53748;DHT22;39655;53.210;5.768;2022-11-15T14:38:14;12.40;83.60
53748;DHT22;39655;53.210;5.768;2022-11-15T14:40:40;12.40;83.50
53748;DHT22;39655;53.210;5.768;2022-11-15T14:43:09;12.30;83.50
53748;DHT22;39655;53.210;5.768;2022-11-15T14:45:35;12.30;83.40
53748;DHT22;39655;53.210;5.768;2022-11-15T14:48:01;12.20;83.40
53748;DHT22;39655;53.210;5.768;2022-11-15T14:50:27;12.20;83.90
53748;DHT22;39655;53.210;5.768;2022-11-15T14:52:53;12.20;84.00
53748;DHT22;39655;53.210;5.768;2022-11-15T14:55:27;12.10;84.20
53748;DHT22;39655;53.210;5.768;2022-11-15T14:57:57;12.10;84.50
53748;DHT22;39655;53.210;5.768;2022-11-15T15:00:26;12.10;84.40
53748;DHT22;39655;53.210;5.768;2022-11-15T15:02:53;12.10;84.50
53748;DHT22;39655;53.210;5.768;2022-11-15T15:05:34;12.00;84.20
53748;DHT22;39655;53.210;5.768;2022-11-15T15:08:00;11.90;84.10
53748;DHT22;39655;53.210;5.768;2022-11-15T15:10:31;11.90;84.00
53748;DHT22;39655;53.210;5.768;2022-11-15T15:12:58;11.90;84.10
53748;DHT22;39655;53.210;5.768;2022-11-15T15:15:25;11.90;83.80
53748;DHT22;39655;53.210;5.768;2022-11-15T15:17:51;11.80;83.70
53748;DHT22;39655;53.210;5.768;2022-11-15T15:20:19;11.80;83.70
53748;DHT22;39655;53.210;5.768;2022-11-15T15:22:45;11.70;83.70
53748;DHT22;39655;53.210;5.768;2022-11-15T15:25:31;11.70;83.80
53748;DHT22;39655;53.210;5.768;2022-11-15T15:27:58;11.60;83.60
53748;DHT22;39655;53.210;5.768;2022-11-15T15:30:25;11.50;83.90
53748;DHT22;39655;53.210;5.768;2022-11-15T15:32:51;11.50;84.30
53748;DHT22;39655;53.210;5.768;2022-11-15T15:35:18;11.50;84.40
53748;DHT22;39655;53.210;5.768;2022-11-15T15:37:45;11.50;84.50
53748;DHT22;39655;53.210;5.768;2022-11-15T15:40:17;11.50;84.40
53748;DHT22;39655;53.210;5.768;2022-11-15T15:42:47;11.40;84.00
53748;DHT22;39655;53.210;5.768;2022-11-15T15:45:16;11.40;83.80
53748;DHT22;39655;53.210;5.768;2022-11-15T15:47:43;11.40;83.60
53748;DHT22;39655;53.210;5.768;2022-11-15T15:50:29;11.30;83.90
53748;DHT22;39655;53.210;5.768;2022-11-15T15:52:57;11.30;83.90
53748;DHT22;39655;53.210;5.768;2022-11-15T15:55:24;11.20;83.70
53748;DHT22;39655;53.210;5.768;2022-11-15T15:57:50;11.20;83.70
53748;DHT22;39655;53.210;5.768;2022-11-15T16:00:16;11.10;83.80
53748;DHT22;39655;53.210;5.768;2022-11-15T16:02:42;11.10;83.90
53748;DHT22;39655;53.210;5.768;2022-11-15T16:05:12;11.10;83.80
53748;DHT22;39655;53.210;5.768;2022-11-15T16:07:38;11.10;84.10
53748;DHT22;39655;53.210;5.768;2022-11-15T16:10:19;11.10;84.30
53748;DHT22;39655;53.210;5.768;2022-11-15T16:12:45;11.10;84.40
53748;DHT22;39655;53.210;5.768;2022-11-15T16:15:11;11.10;84.10
53748;DHT22;39655;53.210;5.768;2022-11-15T16:17:44;11.10;84.30
53748;DHT22;39655;53.210;5.768;2022-11-15T16:20:37;11.10;84.50
53748;DHT22;39655;53.210;5.768;2022-11-15T16:23:09;11.10;84.40
53748;DHT22;39655;53.210;5.768;2022-11-15T16:28:18;11.20;84.50
53748;DHT22;39655;53.210;5.768;2022-11-15T16:30:45;11.20;84.60
53748;DHT22;39655;53.210;5.768;2022-11-15T16:33:10;11.20;84.40
53748;DHT22;39655;53.210;5.768;2022-11-15T16:35:36;11.30;84.00
53748;DHT22;39655;53.210;5.768;2022-11-15T16:38:02;11.30;84.10
53748;DHT22;39655;53.210;5.768;2022-11-15T16:40:30;11.30;83.80
53748;DHT22;39655;53.210;5.768;2022-11-15T16:42:58;11.30;83.90
53748;DHT22;39655;53.210;5.768;2022-11-15T16:45:26;11.40;84.20
53748;DHT22;39655;53.210;5.768;2022-11-15T16:47:54;11.30;83.90
53748;DHT22;39655;53.210;5.768;2022-11-15T16:50:22;11.40;83.90
53748;DHT22;39655;53.210;5.768;2022-11-15T16:52:54;11.40;83.80
53748;DHT22;39655;53.210;5.768;2022-11-15T16:55:21;11.40;83.80
53748;DHT22;39655;53.210;5.768;2022-11-15T16:57:48;11.40;83.40
53748;DHT22;39655;53.210;5.768;2022-11-15T17:00:15;11.40;83.50
53748;DHT22;39655;53.210;5.768;2022-11-15T17:02:46;11.40;83.40
53748;DHT22;39655;53.210;5.768;2022-11-15T17:05:13;11.50;83.50
53748;DHT22;39655;53.210;5.768;2022-11-15T17:07:40;11.50;83.40
53748;DHT22;39655;53.210;5.768;2022-11-15T17:10:07;11.50;83.40
53748;DHT22;39655;53.210;5.768;2022-11-15T17:12:34;11.50;83.10
53748;DHT22;39655;53.210;5.768;2022-11-15T17:15:01;11.50;82.50
53748;DHT22;39655;53.210;5.768;2022-11-15T17:17:27;11.50;82.50
53748;DHT22;39655;53.210;5.768;2022-11-15T17:19:53;11.50;82.40
53748;DHT22;39655;53.210;5.768;2022-11-15T17:22:19;11.50;81.90
53748;DHT22;39655;53.210;5.768;2022-11-15T17:24:45;11.60;82.00
53748;DHT22;39655;53.210;5.768;2022-11-15T17:27:11;11.50;81.70
53748;DHT22;39655;53.210;5.768;2022-11-15T17:29:36;11.50;81.60
53748;DHT22;39655;53.210;5.768;2022-11-15T17:32:02;11.60;81.80
53748;DHT22;39655;53.210;5.768;2022-11-15T17:34:28;11.60;81.70
53748;DHT22;39655;53.210;5.768;2022-11-15T17:36:54;11.50;81.20
53748;DHT22;39655;53.210;5.768;2022-11-15T17:39:19;11.60;81.10
53748;DHT22;39655;53.210;5.768;2022-11-15T17:41:46;11.60;81.20
53748;DHT22;39655;53.210;5.768;2022-11-15T17:44:11;11.60;81.00
53748;DHT22;39655;53.210;5.768;2022-11-15T17:46:37;11.60;81.00
53748;DHT22;39655;53.210;5.768;2022-11-15T17:49:05;11.60;80.60